sensor_id;sensor_type;location;lat;lon;timestamp;temperature;humidity
21033;DHT22;10675;47.976;7.824;2023-07-28T00:02:06;18.90;99.90
21033;DHT22;10675;47.976;7.824;2023-07-28T00:04:33;18.80;99.90
21033;DHT22;10675;47.976;7.824;2023-07-28T00:06:59;18.80;99.90
21033;DHT22;10675;47.976;7.824;2023-07-28T00:09:25;18.80;99.90
21033;DHT22;10675;47.976;7.824;2023-07-28T00:11:50;18.80;99.90
21033;DHT22;10675;47.976;7.824;2023-07-28T00:14:16;18.70;99.90
21033;DHT22;10675;47.976;7.824;2023-07-28T00:16:41;18.80;99.90
21033;DHT22;10675;47.976;7.824;2023-07-28T00:19:07;18.80;99.90
21033;DHT22;10675;47.976;7.824;2023-07-28T00:21:32;18.80;99.90
21033;DHT22;10675;47.976;7.824;2023-07-28T00:23:58;18.80;99.90
21033;DHT22;10675;47.976;7.824;2023-07-28T00:26:23;18.80;99.90
21033;DHT22;10675;47.976;7.824;2023-07-28T00:28:49;18.70;99.90
21033;DHT22;10675;47.976;7.824;2023-07-28T00:31:15;18.80;99.90
21033;DHT22;10675;47.976;7.824;2023-07-28T00:33:40;18.80;99.90
21033;DHT22;10675;47.976;7.824;2023-07-28T00:36:07;18.80;99.90
21033;DHT22;10675;47.976;7.824;2023-07-28T00:38:33;18.70;99.90
21033;DHT22;10675;47.976;7.824;2023-07-28T00:40:58;18.70;99.90
21033;DHT22;10675;47.976;7.824;2023-07-28T00:43:24;18.60;99.90
21033;DHT22;10675;47.976;7.824;2023-07-28T00:45:50;18.60;99.90
21033;DHT22;10675;47.976;7.824;2023-07-28T00:48:16;18.50;99.90
21033;DHT22;10675;47.976;7.824;2023-07-28T00:50:45;18.50;99.90
21033;DHT22;10675;47.976;7.824;2023-07-28T00:53:12;18.50;99.90
21033;DHT22;10675;47.976;7.824;2023-07-28T00:55:38;18.40;99.90
21033;DHT22;10675;47.976;7.824;2023-07-28T00:58:04;18.30;99.90
21033;DHT22;10675;47.976;7.824;2023-07-28T01:00:29;18.30;99.90
21033;DHT22;10675;47.976;7.824;2023-07-28T01:02:56;18.20;99.90
21033;DHT22;10675;47.976;7.824;2023-07-28T01:05:26;18.30;99.90
21033;DHT22;10675;47.976;7.824;2023-07-28T01:08:01;18.30;99.90
21033;DHT22;10675;47.976;7.824;2023-07-28T01:10:31;18.30;99.90
21033;DHT22;10675;47.976;7.824;2023-07-28T01:12:59;18.40;99.90
21033;DHT22;10675;47.976;7.824;2023-07-28T01:15:25;18.30;99.90
21033;DHT22;10675;47.976;7.824;2023-07-28T01:17:51;18.30;99.90
21033;DHT22;10675;47.976;7.824;2023-07-28T01:20:17;18.20;99.90
21033;DHT22;10675;47.976;7.824;2023-07-28T01:22:48;18.20;99.90
21033;DHT22;10675;47.976;7.824;2023-07-28T01:27:57;18.20;99.90
21033;DHT22;10675;47.976;7.824;2023-07-28T01:30:24;18.30;99.90
21033;DHT22;10675;47.976;7.824;2023-07-28T01:32:54;18.30;99.90
21033;DHT22;10675;47.976;7.824;2023-07-28T01:35:20;18.30;99.90
21033;DHT22;10675;47.976;7.824;2023-07-28T01:37:45;18.30;99.90
21033;DHT22;10675;47.976;7.824;2023-07-28T01:40:19;18.30;99.90
21033;DHT22;10675;47.976;7.824;2023-07-28T01:42:45;18.20;99.90
21033;DHT22;10675;47.976;7.824;2023-07-28T01:45:11;18.30;99.90
21033;DHT22;10675;47.976;7.824;2023-07-28T01:47:36;18.20;99.90
21033;DHT22;10675;47.976;7.824;2023-07-28T01:50:02;18.20;99.90
21033;DHT22;10675;47.976;7.824;2023-07-28T01:52:27;18.20;99.90
21033;DHT22;10675;47.976;7.824;2023-07-28T01:54:53;18.20;99.90
21033;DHT22;10675;47.976;7.824;2023-07-28T01:57:18;18.20;99.90
21033;DHT22;10675;47.976;7.824;2023-07-28T01:59:44;18.20;99.90
21033;DHT22;10675;47.976;7.824;2023-07-28T02:02:09;18.30;99.90
21033;DHT22;10675;47.976;7.824;2023-07-28T02:04:35;18.30;99.90
21033;DHT22;10675;47.976;7.824;2023-07-28T02:07:00;18.20;99.90
21033;DHT22;10675;47.976;7.824;2023-07-28T02:09:26;18.20;99.90
21033;DHT22;10675;47.976;7.824;2023-07-28T02:11:52;18.20;99.90
21033;DHT22;10675;47.976;7.824;2023-07-28T02:14:18;18.20;99.90
21033;DHT22;10675;47.976;7.824;2023-07-28T02:16:43;18.20;99.90
21033;DHT22;10675;47.976;7.824;2023-07-28T02:19:09;18.20;99.90
21033;DHT22;10675;47.976;7.824;2023-07-28T02:21:34;18.30;99.90
21033;DHT22;10675;47.976;7.824;2023-07-28T02:24:00;18.30;99.90
21033;DHT22;10675;47.976;7.824;2023-07-28T02:26:25;18.30;99.90
21033;DHT22;10675;47.976;7.824;2023-07-28T02:28:51;18.30;99.90
21033;DHT22;10675;47.976;7.824;2023-07-28T02:31:17;18.30;99.90
21033;DHT22;10675;47.976;7.824;2023-07-28T02:33:42;18.30;99.90
21033;DHT22;10675;47.976;7.824;2023-07-28T02:36:08;18.30;99.90
21033;DHT22;10675;47.976;7.824;2023-07-28T02:38:33;18.30;99.90
21033;DHT22;10675;47.976;7.824;2023-07-28T02:40:59;18.40;99.90
21033;DHT22;10675;47.976;7.824;2023-07-28T02:43:24;18.40;99.90
21033;DHT22;10675;47.976;7.824;2023-07-28T02:45:54;18.40;99.90
21033;DHT22;10675;47.976;7.824;2023-07-28T02:48:20;18.40;99.90
21033;DHT22;10675;47.976;7.824;2023-07-28T02:50:47;18.40;99.90
21033;DHT22;10675;47.976;7.824;2023-07-28T02:53:13;18.40;99.90
21033;DHT22;10675;47.976;7.824;2023-07-28T02:55:46;18.40;99.90
21033;DHT22;10675;47.976;7.824;2023-07-28T02:58:12;18.40;99.90
21033;DHT22;10675;47.976;7.824;2023-07-28T03:00:41;18.50;99.90
21033;DHT22;10675;47.976;7.824;2023-07-28T03:03:08;18.50;99.90
21033;DHT22;10675;47.976;7.824;2023-07-28T03:05:37;18.60;99.90
21033;DHT22;10675;47.976;7.824;2023-07-28T03:08:04;18.60;99.90
21033;DHT22;10675;47.976;7.824;2023-07-28T03:10:29;18.70;99.90
21033;DHT22;10675;47.976;7.824;2023-07-28T03:12:55;18.80;99.90
21033;DHT22;10675;47.976;7.824;2023-07-28T03:15:21;18.80;99.90
21033;DHT22;10675;47.976;7.824;2023-07-28T03:17:50;18.90;99.90
21033;DHT22;10675;47.976;7.824;2023-07-28T03:20:16;19.00;99.90
21033;DHT22;10675;47.976;7.824;2023-07-28T03:22:41;19.00;99.90
21033;DHT22;10675;47.976;7.824;2023-07-28T03:25:07;19.00;99.90
21033;DHT22;10675;47.976;7.824;2023-07-28T03:27:33;19.00;99.90
21033;DHT22;10675;47.976;7.824;2023-07-28T03:29:59;19.00;99.90
21033;DHT22;10675;47.976;7.824;2023-07-28T03:32:24;19.10;99.90
21033;DHT22;10675;47.976;7.824;2023-07-28T03:34:50;19.40;99.90
21033;DHT22;10675;47.976;7.824;2023-07-28T03:37:15;19.70;99.90
21033;DHT22;10675;47.976;7.824;2023-07-28T03:39:41;19.90;99.90
21033;DHT22;10675;47.976;7.824;2023-07-28T03:42:07;20.00;99.90
21033;DHT22;10675;47.976;7.824;2023-07-28T03:44:33;20.20;99.90
21033;DHT22;10675;47.976;7.824;2023-07-28T03:46:59;20.40;99.90
21033;DHT22;10675;47.976;7.824;2023-07-28T03:49:24;20.60;99.90
21033;DHT22;10675;47.976;7.824;2023-07-28T03:51:50;20.70;99.90
21033;DHT22;10675;47.976;7.824;2023-07-28T03:54:16;20.80;99.90
21033;DHT22;10675;47.976;7.824;2023-07-28T03:56:41;20.80;99.90
21033;DHT22;10675;47.976;7.824;2023-07-28T03:59:07;20.90;99.90
21033;DHT22;10675;47.976;7.824;2023-07-28T04:01:32;20.90;99.90
21033;DHT22;10675;47.976;7.824;2023-07-28T04:03:58;21.00;99.90
21033;DHT22;10675;47.976;7.824;2023-07-28T04:06:59;21.00;99.90
21033;DHT22;10675;47.976;7.824;2023-07-28T04:09:25;21.00;99.90
21033;DHT22;10675;47.976;7.824;2023-07-28T04:11:50;20.90;99.90
21033;DHT22;10675;47.976;7.824;2023-07-28T04:14:16;20.70;99.90
21033;DHT22;10675;47.976;7.824;2023-07-28T04:16:41;20.40;99.90
21033;DHT22;10675;47.976;7.824;2023-07-28T04:19:07;20.20;99.90
21033;DHT22;10675;47.976;7.824;2023-07-28T04:21:32;20.00;99.90
21033;DHT22;10675;47.976;7.824;2023-07-28T04:23:58;19.90;99.90
21033;DHT22;10675;47.976;7.824;2023-07-28T04:26:24;19.80;99.90
21033;DHT22;10675;47.976;7.824;2023-07-28T04:28:50;19.80;99.90
21033;DHT22;10675;47.976;7.824;2023-07-28T04:31:16;19.90;99.90
21033;DHT22;10675;47.976;7.824;2023-07-28T04:33:42;20.10;99.90
21033;DHT22;10675;47.976;7.824;2023-07-28T04:36:08;20.30;99.90
21033;DHT22;10675;47.976;7.824;2023-07-28T04:38:34;20.40;99.90
21033;DHT22;10675;47.976;7.824;2023-07-28T04:40:59;20.70;99.90
21033;DHT22;10675;47.976;7.824;2023-07-28T04:43:25;21.00;99.90
21033;DHT22;10675;47.976;7.824;2023-07-28T04:45:50;21.00;99.90
21033;DHT22;10675;47.976;7.824;2023-07-28T04:48:16;21.00;99.90
21033;DHT22;10675;47.976;7.824;2023-07-28T04:50:41;21.00;99.90
21033;DHT22;10675;47.976;7.824;2023-07-28T04:53:07;21.10;99.90
21033;DHT22;10675;47.976;7.824;2023-07-28T04:55:32;21.30;99.90
21033;DHT22;10675;47.976;7.824;2023-07-28T04:57:58;21.60;99.90
21033;DHT22;10675;47.976;7.824;2023-07-28T05:00:23;21.50;99.90
21033;DHT22;10675;47.976;7.824;2023-07-28T05:02:49;21.40;99.90
21033;DHT22;10675;47.976;7.824;2023-07-28T05:05:15;21.20;99.90
21033;DHT22;10675;47.976;7.824;2023-07-28T05:07:40;21.20;99.90
21033;DHT22;10675;47.976;7.824;2023-07-28T05:10:06;21.30;99.90
21033;DHT22;10675;47.976;7.824;2023-07-28T05:12:32;21.30;99.90
21033;DHT22;10675;47.976;7.824;2023-07-28T05:14:57;21.30;99.90
21033;DHT22;10675;47.976;7.824;2023-07-28T05:17:23;21.40;99.90
21033;DHT22;10675;47.976;7.824;2023-07-28T05:19:50;21.40;99.90
21033;DHT22;10675;47.976;7.824;2023-07-28T05:22:15;21.50;99.90
21033;DHT22;10675;47.976;7.824;2023-07-28T05:24:41;21.40;99.90
21033;DHT22;10675;47.976;7.824;2023-07-28T05:27:06;21.40;99.90
21033;DHT22;10675;47.976;7.824;2023-07-28T05:29:32;21.40;99.90
21033;DHT22;10675;47.976;7.824;2023-07-28T05:32:01;21.40;99.90
21033;DHT22;10675;47.976;7.824;2023-07-28T05:34:26;21.40;99.90
21033;DHT22;10675;47.976;7.824;2023-07-28T05:36:52;21.40;99.90
21033;DHT22;10675;47.976;7.824;2023-07-28T05:39:18;21.40;99.90
21033;DHT22;10675;47.976;7.824;2023-07-28T05:41:43;21.30;99.90
21033;DHT22;10675;47.976;7.824;2023-07-28T05:44:09;21.40;99.90
21033;DHT22;10675;47.976;7.824;2023-07-28T05:46:35;21.40;99.90
21033;DHT22;10675;47.976;7.824;2023-07-28T05:49:00;21.40;99.90
21033;DHT22;10675;47.976;7.824;2023-07-28T05:51:26;21.40;99.90
21033;DHT22;10675;47.976;7.824;2023-07-28T05:53:51;21.40;99.90
21033;DHT22;10675;47.976;7.824;2023-07-28T05:56:17;21.40;99.90
21033;DHT22;10675;47.976;7.824;2023-07-28T05:58:45;21.40;99.90
21033;DHT22;10675;47.976;7.824;2023-07-28T06:01:11;21.30;99.90
21033;DHT22;10675;47.976;7.824;2023-07-28T06:03:36;21.40;99.90
21033;DHT22;10675;47.976;7.824;2023-07-28T06:06:02;21.40;99.90
21033;DHT22;10675;47.976;7.824;2023-07-28T06:08:28;21.40;99.90
21033;DHT22;10675;47.976;7.824;2023-07-28T06:10:53;21.50;99.90
21033;DHT22;10675;47.976;7.824;2023-07-28T06:13:19;21.40;99.90
21033;DHT22;10675;47.976;7.824;2023-07-28T06:15:45;21.40;99.90
21033;DHT22;10675;47.976;7.824;2023-07-28T06:18:10;21.40;99.90
21033;DHT22;10675;47.976;7.824;2023-07-28T06:20:36;21.30;99.90
21033;DHT22;10675;47.976;7.824;2023-07-28T06:23:01;21.40;99.90
21033;DHT22;10675;47.976;7.824;2023-07-28T06:25:27;21.30;99.90
21033;DHT22;10675;47.976;7.824;2023-07-28T06:27:52;21.30;99.90
21033;DHT22;10675;47.976;7.824;2023-07-28T06:30:18;21.30;99.90
21033;DHT22;10675;47.976;7.824;2023-07-28T06:32:44;21.30;99.90
21033;DHT22;10675;47.976;7.824;2023-07-28T06:35:09;21.20;99.90
21033;DHT22;10675;47.976;7.824;2023-07-28T06:37:36;21.40;99.90
21033;DHT22;10675;47.976;7.824;2023-07-28T06:40:06;21.30;99.90
21033;DHT22;10675;47.976;7.824;2023-07-28T06:42:34;21.30;99.90
21033;DHT22;10675;47.976;7.824;2023-07-28T06:45:00;21.30;99.90
21033;DHT22;10675;47.976;7.824;2023-07-28T06:47:25;21.40;99.90
21033;DHT22;10675;47.976;7.824;2023-07-28T06:49:51;21.30;99.90
21033;DHT22;10675;47.976;7.824;2023-07-28T06:52:16;21.40;99.90
21033;DHT22;10675;47.976;7.824;2023-07-28T06:54:41;21.40;99.90
21033;DHT22;10675;47.976;7.824;2023-07-28T06:57:07;21.50;99.90
21033;DHT22;10675;47.976;7.824;2023-07-28T06:59:33;21.40;99.90
21033;DHT22;10675;47.976;7.824;2023-07-28T07:01:58;21.40;99.90
21033;DHT22;10675;47.976;7.824;2023-07-28T07:04:24;21.40;99.90
21033;DHT22;10675;47.976;7.824;2023-07-28T07:06:50;21.50;99.90
21033;DHT22;10675;47.976;7.824;2023-07-28T07:09:15;21.60;99.90
21033;DHT22;10675;47.976;7.824;2023-07-28T07:11:41;22.10;99.90
21033;DHT22;10675;47.976;7.824;2023-07-28T07:14:06;21.70;99.90
21033;DHT22;10675;47.976;7.824;2023-07-28T07:16:33;21.60;99.90
21033;DHT22;10675;47.976;7.824;2023-07-28T07:18:58;21.60;99.90
21033;DHT22;10675;47.976;7.824;2023-07-28T07:21:24;21.60;99.90
21033;DHT22;10675;47.976;7.824;2023-07-28T07:23:49;21.50;99.90
21033;DHT22;10675;47.976;7.824;2023-07-28T07:26:15;21.60;99.90
21033;DHT22;10675;47.976;7.824;2023-07-28T07:28:40;21.70;99.90
21033;DHT22;10675;47.976;7.824;2023-07-28T07:31:15;21.60;99.90
21033;DHT22;10675;47.976;7.824;2023-07-28T07:33:41;21.70;99.90
21033;DHT22;10675;47.976;7.824;2023-07-28T07:36:14;21.70;99.90
21033;DHT22;10675;47.976;7.824;2023-07-28T07:38:40;21.70;99.90
21033;DHT22;10675;47.976;7.824;2023-07-28T07:41:11;21.70;99.90
21033;DHT22;10675;47.976;7.824;2023-07-28T07:43:38;21.70;99.90
21033;DHT22;10675;47.976;7.824;2023-07-28T07:46:04;21.80;99.90
21033;DHT22;10675;47.976;7.824;2023-07-28T07:48:29;21.70;99.90
21033;DHT22;10675;47.976;7.824;2023-07-28T07:50:55;21.80;99.90
21033;DHT22;10675;47.976;7.824;2023-07-28T07:53:21;21.80;99.90
21033;DHT22;10675;47.976;7.824;2023-07-28T07:55:46;21.80;99.90
21033;DHT22;10675;47.976;7.824;2023-07-28T07:58:13;22.00;99.90
21033;DHT22;10675;47.976;7.824;2023-07-28T08:00:38;22.10;99.90
21033;DHT22;10675;47.976;7.824;2023-07-28T08:03:04;22.20;99.90
21033;DHT22;10675;47.976;7.824;2023-07-28T08:05:30;22.20;99.90
21033;DHT22;10675;47.976;7.824;2023-07-28T08:07:56;22.20;99.90
21033;DHT22;10675;47.976;7.824;2023-07-28T08:10:21;22.40;99.90
21033;DHT22;10675;47.976;7.824;2023-07-28T08:12:47;22.50;99.90
21033;DHT22;10675;47.976;7.824;2023-07-28T08:15:13;22.40;99.90
21033;DHT22;10675;47.976;7.824;2023-07-28T08:17:39;22.30;99.90
21033;DHT22;10675;47.976;7.824;2023-07-28T08:20:09;22.20;99.90
21033;DHT22;10675;47.976;7.824;2023-07-28T08:22:34;22.00;99.90
21033;DHT22;10675;47.976;7.824;2023-07-28T08:25:00;21.80;99.90
21033;DHT22;10675;47.976;7.824;2023-07-28T08:27:26;21.80;99.90
21033;DHT22;10675;47.976;7.824;2023-07-28T08:29:51;21.80;99.90
21033;DHT22;10675;47.976;7.824;2023-07-28T08:32:17;21.80;99.90
21033;DHT22;10675;47.976;7.824;2023-07-28T08:34:42;21.80;99.90
21033;DHT22;10675;47.976;7.824;2023-07-28T08:37:08;21.80;99.90
21033;DHT22;10675;47.976;7.824;2023-07-28T08:39:34;21.80;99.90
21033;DHT22;10675;47.976;7.824;2023-07-28T08:42:03;21.90;99.90
21033;DHT22;10675;47.976;7.824;2023-07-28T08:44:31;21.90;99.90
21033;DHT22;10675;47.976;7.824;2023-07-28T08:46:59;22.00;99.90
21033;DHT22;10675;47.976;7.824;2023-07-28T08:49:25;22.00;99.90
21033;DHT22;10675;47.976;7.824;2023-07-28T08:51:52;22.10;99.90
21033;DHT22;10675;47.976;7.824;2023-07-28T08:54:17;22.10;99.90
21033;DHT22;10675;47.976;7.824;2023-07-28T08:56:43;22.20;99.90
21033;DHT22;10675;47.976;7.824;2023-07-28T08:59:09;22.30;99.90
21033;DHT22;10675;47.976;7.824;2023-07-28T09:01:41;22.20;99.90
21033;DHT22;10675;47.976;7.824;2023-07-28T09:04:10;22.30;99.90
21033;DHT22;10675;47.976;7.824;2023-07-28T09:06:37;22.20;99.90
21033;DHT22;10675;47.976;7.824;2023-07-28T09:09:06;22.20;99.90
21033;DHT22;10675;47.976;7.824;2023-07-28T09:11:32;22.10;99.90
21033;DHT22;10675;47.976;7.824;2023-07-28T09:14:00;22.20;99.90
21033;DHT22;10675;47.976;7.824;2023-07-28T09:16:26;22.30;99.90
21033;DHT22;10675;47.976;7.824;2023-07-28T09:19:04;22.30;99.90
21033;DHT22;10675;47.976;7.824;2023-07-28T09:21:30;22.50;99.90
21033;DHT22;10675;47.976;7.824;2023-07-28T09:23:59;22.40;99.90
21033;DHT22;10675;47.976;7.824;2023-07-28T09:26:39;22.30;99.90
21033;DHT22;10675;47.976;7.824;2023-07-28T09:29:18;22.40;99.90
21033;DHT22;10675;47.976;7.824;2023-07-28T09:31:45;22.40;99.90
21033;DHT22;10675;47.976;7.824;2023-07-28T09:34:11;22.40;99.90
21033;DHT22;10675;47.976;7.824;2023-07-28T09:36:37;22.50;99.90
21033;DHT22;10675;47.976;7.824;2023-07-28T09:39:05;22.50;99.90
21033;DHT22;10675;47.976;7.824;2023-07-28T09:41:35;22.60;99.90
21033;DHT22;10675;47.976;7.824;2023-07-28T09:44:01;22.70;99.90
21033;DHT22;10675;47.976;7.824;2023-07-28T09:46:28;22.80;99.90
21033;DHT22;10675;47.976;7.824;2023-07-28T09:48:57;22.80;99.90
21033;DHT22;10675;47.976;7.824;2023-07-28T09:51:29;22.90;99.90
21033;DHT22;10675;47.976;7.824;2023-07-28T09:54:15;23.00;99.90
21033;DHT22;10675;47.976;7.824;2023-07-28T09:56:43;23.00;99.90
21033;DHT22;10675;47.976;7.824;2023-07-28T09:59:13;23.10;99.90
21033;DHT22;10675;47.976;7.824;2023-07-28T10:01:43;23.20;99.90
21033;DHT22;10675;47.976;7.824;2023-07-28T10:04:10;23.10;99.90
21033;DHT22;10675;47.976;7.824;2023-07-28T10:06:36;23.20;99.90
21033;DHT22;10675;47.976;7.824;2023-07-28T10:09:04;23.20;99.90
21033;DHT22;10675;47.976;7.824;2023-07-28T10:11:31;23.20;99.90
21033;DHT22;10675;47.976;7.824;2023-07-28T10:13:57;23.20;99.90
21033;DHT22;10675;47.976;7.824;2023-07-28T10:16:39;23.20;99.90
21033;DHT22;10675;47.976;7.824;2023-07-28T10:19:04;23.30;99.90
21033;DHT22;10675;47.976;7.824;2023-07-28T10:21:31;23.30;99.90
21033;DHT22;10675;47.976;7.824;2023-07-28T10:23:58;23.40;99.90
21033;DHT22;10675;47.976;7.824;2023-07-28T10:26:39;23.50;99.90
21033;DHT22;10675;47.976;7.824;2023-07-28T10:29:11;23.50;99.90
21033;DHT22;10675;47.976;7.824;2023-07-28T10:31:36;23.50;99.90
21033;DHT22;10675;47.976;7.824;2023-07-28T10:34:02;23.60;99.90
21033;DHT22;10675;47.976;7.824;2023-07-28T10:39:16;23.50;99.90
21033;DHT22;10675;47.976;7.824;2023-07-28T10:42:07;23.50;99.90
21033;DHT22;10675;47.976;7.824;2023-07-28T10:44:34;23.60;99.90
21033;DHT22;10675;47.976;7.824;2023-07-28T10:47:00;23.60;99.90
21033;DHT22;10675;47.976;7.824;2023-07-28T10:49:27;23.60;99.90
21033;DHT22;10675;47.976;7.824;2023-07-28T10:51:53;23.70;99.90
21033;DHT22;10675;47.976;7.824;2023-07-28T10:54:18;23.60;99.90
21033;DHT22;10675;47.976;7.824;2023-07-28T10:56:46;23.70;99.90
21033;DHT22;10675;47.976;7.824;2023-07-28T10:59:12;23.70;99.90
21033;DHT22;10675;47.976;7.824;2023-07-28T11:01:39;23.60;99.90
21033;DHT22;10675;47.976;7.824;2023-07-28T11:04:20;23.60;99.90
21033;DHT22;10675;47.976;7.824;2023-07-28T11:06:50;23.60;99.90
21033;DHT22;10675;47.976;7.824;2023-07-28T11:09:21;23.60;99.90
21033;DHT22;10675;47.976;7.824;2023-07-28T11:11:47;23.60;99.90
21033;DHT22;10675;47.976;7.824;2023-07-28T11:14:16;23.60;99.90
21033;DHT22;10675;47.976;7.824;2023-07-28T11:16:42;23.80;99.90
21033;DHT22;10675;47.976;7.824;2023-07-28T11:19:12;23.80;99.90
21033;DHT22;10675;47.976;7.824;2023-07-28T11:21:42;23.90;99.90
21033;DHT22;10675;47.976;7.824;2023-07-28T11:24:08;24.00;99.90
21033;DHT22;10675;47.976;7.824;2023-07-28T11:26:35;24.10;99.90
21033;DHT22;10675;47.976;7.824;2023-07-28T11:29:01;24.10;99.90
21033;DHT22;10675;47.976;7.824;2023-07-28T11:31:27;24.10;99.90
21033;DHT22;10675;47.976;7.824;2023-07-28T11:33:53;24.10;99.90
21033;DHT22;10675;47.976;7.824;2023-07-28T11:36:26;24.20;99.90
21033;DHT22;10675;47.976;7.824;2023-07-28T11:38:52;24.20;99.90
21033;DHT22;10675;47.976;7.824;2023-07-28T11:41:19;24.20;99.90
21033;DHT22;10675;47.976;7.824;2023-07-28T11:43:47;24.30;99.90
21033;DHT22;10675;47.976;7.824;2023-07-28T11:51:44;24.20;99.90
21033;DHT22;10675;47.976;7.824;2023-07-28T11:54:14;24.20;99.90
21033;DHT22;10675;47.976;7.824;2023-07-28T11:56:42;24.20;99.90
21033;DHT22;10675;47.976;7.824;2023-07-28T11:59:08;24.10;99.90
21033;DHT22;10675;47.976;7.824;2023-07-28T12:01:34;24.10;99.90
21033;DHT22;10675;47.976;7.824;2023-07-28T12:04:18;24.00;99.90
21033;DHT22;10675;47.976;7.824;2023-07-28T12:07:10;24.10;99.90
21033;DHT22;10675;47.976;7.824;2023-07-28T12:12:12;24.20;99.90
21033;DHT22;10675;47.976;7.824;2023-07-28T12:14:38;24.20;99.90
21033;DHT22;10675;47.976;7.824;2023-07-28T12:17:15;24.20;99.90
21033;DHT22;10675;47.976;7.824;2023-07-28T12:19:42;24.20;99.20
21033;DHT22;10675;47.976;7.824;2023-07-28T12:22:19;24.00;98.50
21033;DHT22;10675;47.976;7.824;2023-07-28T12:24:45;23.90;98.70
21033;DHT22;10675;47.976;7.824;2023-07-28T12:27:10;23.90;98.10
21033;DHT22;10675;47.976;7.824;2023-07-28T12:29:38;23.80;98.30
21033;DHT22;10675;47.976;7.824;2023-07-28T12:32:04;23.70;98.20
21033;DHT22;10675;47.976;7.824;2023-07-28T12:34:30;23.70;98.50
21033;DHT22;10675;47.976;7.824;2023-07-28T12:36:55;23.70;97.70
21033;DHT22;10675;47.976;7.824;2023-07-28T12:39:21;23.60;97.10
21033;DHT22;10675;47.976;7.824;2023-07-28T12:41:47;23.50;96.10
21033;DHT22;10675;47.976;7.824;2023-07-28T12:44:12;23.50;95.40
21033;DHT22;10675;47.976;7.824;2023-07-28T12:46:39;23.50;95.60
21033;DHT22;10675;47.976;7.824;2023-07-28T12:49:04;23.60;95.50
21033;DHT22;10675;47.976;7.824;2023-07-28T12:51:32;23.50;96.00
21033;DHT22;10675;47.976;7.824;2023-07-28T12:53:58;23.50;96.60
21033;DHT22;10675;47.976;7.824;2023-07-28T12:56:23;23.50;97.20
21033;DHT22;10675;47.976;7.824;2023-07-28T12:58:49;23.30;96.90
21033;DHT22;10675;47.976;7.824;2023-07-28T13:01:14;23.10;98.10
21033;DHT22;10675;47.976;7.824;2023-07-28T13:03:40;22.90;99.40
21033;DHT22;10675;47.976;7.824;2023-07-28T13:06:06;22.90;99.50
21033;DHT22;10675;47.976;7.824;2023-07-28T13:08:31;22.80;99.70
21033;DHT22;10675;47.976;7.824;2023-07-28T13:10:57;23.00;99.40
21033;DHT22;10675;47.976;7.824;2023-07-28T13:13:22;23.00;99.40
21033;DHT22;10675;47.976;7.824;2023-07-28T13:15:48;23.00;99.90
21033;DHT22;10675;47.976;7.824;2023-07-28T13:18:13;23.00;99.90
21033;DHT22;10675;47.976;7.824;2023-07-28T13:20:39;22.70;99.90
21033;DHT22;10675;47.976;7.824;2023-07-28T13:23:04;22.80;99.90
21033;DHT22;10675;47.976;7.824;2023-07-28T13:25:30;22.80;99.90
21033;DHT22;10675;47.976;7.824;2023-07-28T13:27:55;22.80;99.90
21033;DHT22;10675;47.976;7.824;2023-07-28T13:30:21;22.90;99.90
21033;DHT22;10675;47.976;7.824;2023-07-28T13:32:47;22.90;99.90
21033;DHT22;10675;47.976;7.824;2023-07-28T13:35:12;23.10;99.90
21033;DHT22;10675;47.976;7.824;2023-07-28T13:37:38;23.00;99.90
21033;DHT22;10675;47.976;7.824;2023-07-28T13:40:06;23.10;99.90
21033;DHT22;10675;47.976;7.824;2023-07-28T13:42:31;23.10;99.90
21033;DHT22;10675;47.976;7.824;2023-07-28T13:44:57;23.40;99.90
21033;DHT22;10675;47.976;7.824;2023-07-28T13:47:22;23.30;99.90
21033;DHT22;10675;47.976;7.824;2023-07-28T13:49:48;23.30;99.90
21033;DHT22;10675;47.976;7.824;2023-07-28T13:52:13;23.40;99.90
21033;DHT22;10675;47.976;7.824;2023-07-28T13:54:39;23.20;99.90
21033;DHT22;10675;47.976;7.824;2023-07-28T13:57:05;23.40;99.90
21033;DHT22;10675;47.976;7.824;2023-07-28T13:59:30;23.40;99.90
21033;DHT22;10675;47.976;7.824;2023-07-28T14:01:56;23.30;99.90
21033;DHT22;10675;47.976;7.824;2023-07-28T14:04:23;23.30;99.90
21033;DHT22;10675;47.976;7.824;2023-07-28T14:06:49;23.20;99.90
21033;DHT22;10675;47.976;7.824;2023-07-28T14:09:14;23.10;99.90
21033;DHT22;10675;47.976;7.824;2023-07-28T14:11:40;23.00;99.90
21033;DHT22;10675;47.976;7.824;2023-07-28T14:14:05;22.90;99.90
21033;DHT22;10675;47.976;7.824;2023-07-28T14:16:31;23.00;99.90
21033;DHT22;10675;47.976;7.824;2023-07-28T14:18:56;22.90;99.90
21033;DHT22;10675;47.976;7.824;2023-07-28T14:21:22;23.10;99.90
21033;DHT22;10675;47.976;7.824;2023-07-28T14:23:47;23.10;99.90
21033;DHT22;10675;47.976;7.824;2023-07-28T14:26:13;23.10;99.90
21033;DHT22;10675;47.976;7.824;2023-07-28T14:28:38;23.20;99.90
21033;DHT22;10675;47.976;7.824;2023-07-28T14:31:04;23.10;99.90
21033;DHT22;10675;47.976;7.824;2023-07-28T14:33:30;23.10;99.90
21033;DHT22;10675;47.976;7.824;2023-07-28T14:35:55;23.10;99.90
21033;DHT22;10675;47.976;7.824;2023-07-28T14:38:21;23.00;99.90
21033;DHT22;10675;47.976;7.824;2023-07-28T14:40:47;23.00;99.90
21033;DHT22;10675;47.976;7.824;2023-07-28T14:43:15;23.10;99.90
21033;DHT22;10675;47.976;7.824;2023-07-28T14:45:41;23.20;99.90
21033;DHT22;10675;47.976;7.824;2023-07-28T14:48:07;23.30;99.90
21033;DHT22;10675;47.976;7.824;2023-07-28T14:50:32;23.20;99.90
21033;DHT22;10675;47.976;7.824;2023-07-28T14:52:58;23.20;99.90
21033;DHT22;10675;47.976;7.824;2023-07-28T14:55:25;23.20;99.90
21033;DHT22;10675;47.976;7.824;2023-07-28T14:57:50;23.30;99.90
21033;DHT22;10675;47.976;7.824;2023-07-28T15:00:17;23.30;99.90
21033;DHT22;10675;47.976;7.824;2023-07-28T15:02:42;23.30;99.90
21033;DHT22;10675;47.976;7.824;2023-07-28T15:05:08;23.30;99.90
21033;DHT22;10675;47.976;7.824;2023-07-28T15:07:34;23.20;99.90
21033;DHT22;10675;47.976;7.824;2023-07-28T15:10:01;23.00;99.90
21033;DHT22;10675;47.976;7.824;2023-07-28T15:12:27;22.80;99.90
21033;DHT22;10675;47.976;7.824;2023-07-28T15:14:52;22.60;99.90
21033;DHT22;10675;47.976;7.824;2023-07-28T15:17:18;22.50;99.90
21033;DHT22;10675;47.976;7.824;2023-07-28T15:19:43;22.80;99.90
21033;DHT22;10675;47.976;7.824;2023-07-28T15:22:09;22.20;99.90
21033;DHT22;10675;47.976;7.824;2023-07-28T15:24:35;22.30;99.90
21033;DHT22;10675;47.976;7.824;2023-07-28T15:27:00;22.20;99.90
21033;DHT22;10675;47.976;7.824;2023-07-28T15:29:26;22.10;99.90
21033;DHT22;10675;47.976;7.824;2023-07-28T15:31:52;22.00;99.90
21033;DHT22;10675;47.976;7.824;2023-07-28T15:34:19;22.20;99.90
21033;DHT22;10675;47.976;7.824;2023-07-28T15:36:44;22.10;99.90
21033;DHT22;10675;47.976;7.824;2023-07-28T15:39:10;22.00;99.90
21033;DHT22;10675;47.976;7.824;2023-07-28T15:41:35;22.20;99.90